sensor_id;sensor_type;location;lat;lon;timestamp;pressure;altitude;pressure_sealevel;temperature;humidity
19236;BME280;9752;54.270;12.470;2022-12-07T00:04:33;101247.63;;;1.73;100.00
19236;BME280;9752;54.270;12.470;2022-12-07T00:09:34;101239.78;;;1.71;100.00
19236;BME280;9752;54.270;12.470;2022-12-07T00:14:37;101229.41;;;1.70;100.00
19236;BME280;9752;54.270;12.470;2022-12-07T00:19:39;101226.22;;;1.64;100.00
19236;BME280;9752;54.270;12.470;2022-12-07T00:24:41;101223.06;;;1.58;100.00
19236;BME280;9752;54.270;12.470;2022-12-07T00:29:44;101219.41;;;1.55;100.00
19236;BME280;9752;54.270;12.470;2022-12-07T00:34:45;101220.78;;;1.61;100.00
19236;BME280;9752;54.270;12.470;2022-12-07T00:39:47;101206.94;;;1.59;100.00
19236;BME280;9752;54.270;12.470;2022-12-07T00:44:50;101207.72;;;1.58;100.00
19236;BME280;9752;54.270;12.470;2022-12-07T00:49:52;101206.31;;;1.52;100.00
19236;BME280;9752;54.270;12.470;2022-12-07T00:54:53;101196.66;;;1.41;100.00
19236;BME280;9752;54.270;12.470;2022-12-07T00:59:56;101187.13;;;1.31;100.00
19236;BME280;9752;54.270;12.470;2022-12-07T01:04:58;101186.19;;;1.22;100.00
19236;BME280;9752;54.270;12.470;2022-12-07T01:10:00;101178.84;;;1.25;100.00
19236;BME280;9752;54.270;12.470;2022-12-07T01:15:04;101194.47;;;1.28;100.00
19236;BME280;9752;54.270;12.470;2022-12-07T01:20:07;101195.06;;;1.26;100.00
19236;BME280;9752;54.270;12.470;2022-12-07T01:25:11;101192.00;;;1.12;100.00
19236;BME280;9752;54.270;12.470;2022-12-07T01:30:14;101191.31;;;0.97;100.00
19236;BME280;9752;54.270;12.470;2022-12-07T01:35:16;101190.53;;;0.74;100.00
19236;BME280;9752;54.270;12.470;2022-12-07T01:40:18;101179.22;;;0.88;100.00
19236;BME280;9752;54.270;12.470;2022-12-07T01:45:45;101181.44;;;0.85;100.00
19236;BME280;9752;54.270;12.470;2022-12-07T01:50:48;101178.59;;;0.82;100.00
19236;BME280;9752;54.270;12.470;2022-12-07T01:55:52;101180.00;;;0.71;100.00
19236;BME280;9752;54.270;12.470;2022-12-07T02:00:56;101179.19;;;0.63;100.00
19236;BME280;9752;54.270;12.470;2022-12-07T02:05:57;101176.00;;;0.57;100.00
19236;BME280;9752;54.270;12.470;2022-12-07T02:11:03;101173.22;;;0.47;100.00
19236;BME280;9752;54.270;12.470;2022-12-07T02:16:16;101168.28;;;0.48;100.00
19236;BME280;9752;54.270;12.470;2022-12-07T02:21:29;101161.22;;;0.46;100.00
19236;BME280;9752;54.270;12.470;2022-12-07T02:32:17;101152.16;;;0.41;100.00
19236;BME280;9752;54.270;12.470;2022-12-07T02:37:32;101141.59;;;0.37;100.00
19236;BME280;9752;54.270;12.470;2022-12-07T02:42:39;101145.97;;;0.38;100.00
19236;BME280;9752;54.270;12.470;2022-12-07T02:47:44;101139.81;;;0.36;100.00
19236;BME280;9752;54.270;12.470;2022-12-07T02:52:48;101142.38;;;0.36;100.00
19236;BME280;9752;54.270;12.470;2022-12-07T02:58:02;101141.06;;;0.40;100.00
19236;BME280;9752;54.270;12.470;2022-12-07T03:03:10;101139.56;;;0.42;100.00
19236;BME280;9752;54.270;12.470;2022-12-07T03:08:18;101146.16;;;0.40;100.00
19236;BME280;9752;54.270;12.470;2022-12-07T03:13:27;101139.25;;;0.23;100.00
19236;BME280;9752;54.270;12.470;2022-12-07T03:18:34;101123.78;;;0.22;100.00
19236;BME280;9752;54.270;12.470;2022-12-07T03:23:39;101126.81;;;0.26;100.00
19236;BME280;9752;54.270;12.470;2022-12-07T03:28:43;101112.19;;;0.32;100.00
19236;BME280;9752;54.270;12.470;2022-12-07T03:33:54;101115.44;;;0.31;100.00
19236;BME280;9752;54.270;12.470;2022-12-07T03:39:04;101109.94;;;0.35;100.00
19236;BME280;9752;54.270;12.470;2022-12-07T03:44:11;101111.59;;;0.35;100.00
19236;BME280;9752;54.270;12.470;2022-12-07T03:49:20;101094.78;;;0.37;100.00
19236;BME280;9752;54.270;12.470;2022-12-07T03:54:28;101094.31;;;0.32;100.00
19236;BME280;9752;54.270;12.470;2022-12-07T03:59:32;101080.59;;;0.23;100.00
19236;BME280;9752;54.270;12.470;2022-12-07T04:04:36;101071.44;;;0.25;100.00
19236;BME280;9752;54.270;12.470;2022-12-07T04:09:38;101067.41;;;0.27;100.00
19236;BME280;9752;54.270;12.470;2022-12-07T04:14:39;101069.97;;;0.27;100.00
19236;BME280;9752;54.270;12.470;2022-12-07T04:19:42;101062.31;;;0.27;100.00
19236;BME280;9752;54.270;12.470;2022-12-07T04:24:44;101071.00;;;0.29;100.00
19236;BME280;9752;54.270;12.470;2022-12-07T04:29:46;101072.50;;;0.27;100.00
19236;BME280;9752;54.270;12.470;2022-12-07T04:34:49;101073.41;;;0.28;100.00
19236;BME280;9752;54.270;12.470;2022-12-07T04:39:51;101070.38;;;0.23;100.00
19236;BME280;9752;54.270;12.470;2022-12-07T04:44:52;101066.00;;;0.22;100.00
19236;BME280;9752;54.270;12.470;2022-12-07T04:49:55;101069.78;;;0.26;100.00
19236;BME280;9752;54.270;12.470;2022-12-07T04:54:57;101064.34;;;0.23;100.00
19236;BME280;9752;54.270;12.470;2022-12-07T04:59:59;101057.75;;;0.25;100.00
19236;BME280;9752;54.270;12.470;2022-12-07T05:05:02;101062.59;;;0.30;100.00
19236;BME280;9752;54.270;12.470;2022-12-07T05:10:05;101059.31;;;0.31;100.00
19236;BME280;9752;54.270;12.470;2022-12-07T05:15:08;101062.94;;;0.33;100.00
19236;BME280;9752;54.270;12.470;2022-12-07T05:20:11;101063.03;;;0.26;100.00
19236;BME280;9752;54.270;12.470;2022-12-07T05:25:13;101055.06;;;0.23;100.00
19236;BME280;9752;54.270;12.470;2022-12-07T05:30:15;101044.59;;;0.29;100.00
19236;BME280;9752;54.270;12.470;2022-12-07T05:35:19;101050.59;;;0.29;100.00
19236;BME280;9752;54.270;12.470;2022-12-07T05:40:20;101040.03;;;0.17;100.00
19236;BME280;9752;54.270;12.470;2022-12-07T05:45:22;101041.34;;;0.14;100.00
19236;BME280;9752;54.270;12.470;2022-12-07T05:50:25;101039.59;;;0.22;100.00
19236;BME280;9752;54.270;12.470;2022-12-07T05:55:34;101046.75;;;0.17;100.00
19236;BME280;9752;54.270;12.470;2022-12-07T06:00:36;101043.31;;;0.16;100.00
19236;BME280;9752;54.270;12.470;2022-12-07T06:05:39;101043.81;;;0.21;100.00
19236;BME280;9752;54.270;12.470;2022-12-07T06:10:40;101044.19;;;0.17;100.00
19236;BME280;9752;54.270;12.470;2022-12-07T06:15:42;101036.69;;;-0.06;100.00
19236;BME280;9752;54.270;12.470;2022-12-07T06:20:46;101045.03;;;-0.32;100.00
19236;BME280;9752;54.270;12.470;2022-12-07T06:25:47;101044.09;;;-0.32;100.00
19236;BME280;9752;54.270;12.470;2022-12-07T06:30:56;101050.69;;;-0.34;100.00
19236;BME280;9752;54.270;12.470;2022-12-07T06:35:59;101051.84;;;-0.40;100.00
19236;BME280;9752;54.270;12.470;2022-12-07T06:41:01;101047.91;;;-0.45;100.00
19236;BME280;9752;54.270;12.470;2022-12-07T06:46:03;101049.63;;;-0.36;100.00
19236;BME280;9752;54.270;12.470;2022-12-07T06:51:06;101048.00;;;-0.36;100.00
19236;BME280;9752;54.270;12.470;2022-12-07T06:56:08;101050.38;;;-0.37;100.00
19236;BME280;9752;54.270;12.470;2022-12-07T07:01:10;101050.09;;;-0.48;100.00
19236;BME280;9752;54.270;12.470;2022-12-07T07:06:14;101068.75;;;-0.40;100.00
19236;BME280;9752;54.270;12.470;2022-12-07T07:11:16;101061.22;;;-0.31;100.00
19236;BME280;9752;54.270;12.470;2022-12-07T07:16:17;101067.31;;;-0.22;100.00
19236;BME280;9752;54.270;12.470;2022-12-07T07:21:20;101068.72;;;-0.17;100.00
19236;BME280;9752;54.270;12.470;2022-12-07T07:26:22;101068.78;;;-0.08;100.00
19236;BME280;9752;54.270;12.470;2022-12-07T07:31:24;101070.22;;;0.06;100.00
19236;BME280;9752;54.270;12.470;2022-12-07T07:36:27;101083.47;;;0.10;100.00
19236;BME280;9752;54.270;12.470;2022-12-07T07:41:28;101076.00;;;0.12;100.00
19236;BME280;9752;54.270;12.470;2022-12-07T07:46:30;101092.53;;;0.15;100.00
19236;BME280;9752;54.270;12.470;2022-12-07T07:51:34;101093.44;;;0.16;100.00
19236;BME280;9752;54.270;12.470;2022-12-07T07:56:36;101094.75;;;0.12;100.00
19236;BME280;9752;54.270;12.470;2022-12-07T08:01:38;101084.28;;;0.18;100.00
19236;BME280;9752;54.270;12.470;2022-12-07T08:06:41;101087.19;;;0.21;100.00
19236;BME280;9752;54.270;12.470;2022-12-07T08:11:43;101083.00;;;0.30;100.00
19236;BME280;9752;54.270;12.470;2022-12-07T08:16:45;101074.75;;;0.49;100.00
19236;BME280;9752;54.270;12.470;2022-12-07T08:21:48;101083.25;;;0.65;100.00
19236;BME280;9752;54.270;12.470;2022-12-07T08:26:50;101087.06;;;0.77;100.00
19236;BME280;9752;54.270;12.470;2022-12-07T08:31:52;101076.03;;;0.94;100.00
19236;BME280;9752;54.270;12.470;2022-12-07T08:36:55;101067.00;;;1.23;100.00
19236;BME280;9752;54.270;12.470;2022-12-07T08:41:57;101063.16;;;1.52;100.00
19236;BME280;9752;54.270;12.470;2022-12-07T08:47:00;101051.94;;;1.77;100.00
19236;BME280;9752;54.270;12.470;2022-12-07T08:52:05;101032.81;;;1.90;100.00
19236;BME280;9752;54.270;12.470;2022-12-07T08:57:08;101006.19;;;2.06;100.00
19236;BME280;9752;54.270;12.470;2022-12-07T09:02:10;100972.28;;;2.26;100.00
19236;BME280;9752;54.270;12.470;2022-12-07T09:07:13;100957.06;;;2.27;100.00
19236;BME280;9752;54.270;12.470;2022-12-07T09:12:15;100946.22;;;2.30;100.00
19236;BME280;9752;54.270;12.470;2022-12-07T09:17:17;100938.56;;;2.58;100.00
19236;BME280;9752;54.270;12.470;2022-12-07T09:22:20;100927.25;;;2.92;100.00
19236;BME280;9752;54.270;12.470;2022-12-07T09:27:21;100904.63;;;2.97;100.00
19236;BME280;9752;54.270;12.470;2022-12-07T09:32:23;100901.25;;;2.79;100.00
19236;BME280;9752;54.270;12.470;2022-12-07T09:37:26;100893.19;;;2.65;100.00
19236;BME280;9752;54.270;12.470;2022-12-07T09:42:29;100888.00;;;2.19;100.00
19236;BME280;9752;54.270;12.470;2022-12-07T09:47:34;100884.00;;;2.03;100.00
19236;BME280;9752;54.270;12.470;2022-12-07T09:52:37;100867.28;;;1.98;100.00
19236;BME280;9752;54.270;12.470;2022-12-07T09:57:39;100852.63;;;1.61;100.00
19236;BME280;9752;54.270;12.470;2022-12-07T10:02:42;100841.25;;;1.48;100.00
19236;BME280;9752;54.270;12.470;2022-12-07T10:07:47;100846.75;;;1.79;100.00
19236;BME280;9752;54.270;12.470;2022-12-07T10:12:58;100839.78;;;1.95;100.00
19236;BME280;9752;54.270;12.470;2022-12-07T10:18:00;100839.72;;;2.41;100.00
19236;BME280;9752;54.270;12.470;2022-12-07T10:23:04;100835.31;;;2.48;100.00
19236;BME280;9752;54.270;12.470;2022-12-07T10:28:15;100819.81;;;2.47;100.00
19236;BME280;9752;54.270;12.470;2022-12-07T10:33:31;100822.97;;;2.44;100.00
19236;BME280;9752;54.270;12.470;2022-12-07T10:38:45;100810.81;;;2.69;100.00
19236;BME280;9752;54.270;12.470;2022-12-07T10:43:51;100798.94;;;2.61;100.00
19236;BME280;9752;54.270;12.470;2022-12-07T10:48:59;100790.97;;;2.39;100.00
19236;BME280;9752;54.270;12.470;2022-12-07T10:54:12;100780.66;;;2.48;100.00
19236;BME280;9752;54.270;12.470;2022-12-07T10:59:42;100779.63;;;2.65;100.00
19236;BME280;9752;54.270;12.470;2022-12-07T11:04:55;100771.66;;;2.62;100.00
19236;BME280;9752;54.270;12.470;2022-12-07T11:10:11;100773.06;;;2.58;100.00
19236;BME280;9752;54.270;12.470;2022-12-07T11:15:17;100762.53;;;2.55;100.00
19236;BME280;9752;54.270;12.470;2022-12-07T11:20:32;100755.19;;;2.49;100.00
19236;BME280;9752;54.270;12.470;2022-12-07T11:25:43;100747.53;;;2.22;100.00
19236;BME280;9752;54.270;12.470;2022-12-07T11:30:56;100725.63;;;2.34;100.00
19236;BME280;9752;54.270;12.470;2022-12-07T11:36:12;100735.59;;;2.50;100.00
19236;BME280;9752;54.270;12.470;2022-12-07T11:41:24;100728.84;;;2.50;100.00
19236;BME280;9752;54.270;12.470;2022-12-07T11:46:46;100726.13;;;2.87;100.00
19236;BME280;9752;54.270;12.470;2022-12-07T11:51:51;100707.88;;;2.54;100.00
19236;BME280;9752;54.270;12.470;2022-12-07T11:56:57;100704.88;;;2.50;100.00
19236;BME280;9752;54.270;12.470;2022-12-07T12:02:13;100706.50;;;2.58;100.00
19236;BME280;9752;54.270;12.470;2022-12-07T12:07:21;100721.91;;;2.49;100.00
19236;BME280;9752;54.270;12.470;2022-12-07T12:12:48;100746.38;;;1.36;100.00
19236;BME280;9752;54.270;12.470;2022-12-07T12:18:22;100741.34;;;1.02;100.00
19236;BME280;9752;54.270;12.470;2022-12-07T12:23:35;100738.19;;;1.13;100.00
19236;BME280;9752;54.270;12.470;2022-12-07T12:28:41;100742.66;;;1.15;100.00
19236;BME280;9752;54.270;12.470;2022-12-07T12:33:52;100741.03;;;1.07;100.00
19236;BME280;9752;54.270;12.470;2022-12-07T12:39:12;100738.47;;;1.07;100.00
19236;BME280;9752;54.270;12.470;2022-12-07T12:50:20;100743.59;;;1.07;100.00
19236;BME280;9752;54.270;12.470;2022-12-07T12:55:44;100735.03;;;1.07;100.00
19236;BME280;9752;54.270;12.470;2022-12-07T13:06:35;100716.34;;;1.34;100.00
19236;BME280;9752;54.270;12.470;2022-12-07T13:11:43;100719.34;;;1.39;100.00
19236;BME280;9752;54.270;12.470;2022-12-07T13:16:46;100710.50;;;1.63;100.00
19236;BME280;9752;54.270;12.470;2022-12-07T13:21:49;100708.34;;;1.76;100.00
19236;BME280;9752;54.270;12.470;2022-12-07T13:26:55;100703.53;;;1.79;100.00
19236;BME280;9752;54.270;12.470;2022-12-07T13:31:58;100706.38;;;1.82;100.00
19236;BME280;9752;54.270;12.470;2022-12-07T13:37:04;100693.59;;;1.82;100.00
19236;BME280;9752;54.270;12.470;2022-12-07T13:42:19;100696.16;;;1.82;100.00
19236;BME280;9752;54.270;12.470;2022-12-07T13:47:34;100696.28;;;1.84;100.00
19236;BME280;9752;54.270;12.470;2022-12-07T13:52:43;100711.94;;;1.78;100.00
19236;BME280;9752;54.270;12.470;2022-12-07T13:57:50;100712.41;;;1.74;100.00
19236;BME280;9752;54.270;12.470;2022-12-07T14:02:57;100720.25;;;1.67;100.00
19236;BME280;9752;54.270;12.470;2022-12-07T14:08:03;100719.69;;;1.61;100.00
19236;BME280;9752;54.270;12.470;2022-12-07T14:13:29;100723.34;;;1.54;100.00
19236;BME280;9752;54.270;12.470;2022-12-07T14:18:40;100723.63;;;1.57;100.00
19236;BME280;9752;54.270;12.470;2022-12-07T14:23:44;100730.97;;;1.63;100.00
19236;BME280;9752;54.270;12.470;2022-12-07T14:28:46;100712.47;;;1.65;100.00
19236;BME280;9752;54.270;12.470;2022-12-07T14:33:48;100720.31;;;1.58;100.00
19236;BME280;9752;54.270;12.470;2022-12-07T14:38:51;100724.72;;;1.50;100.00
19236;BME280;9752;54.270;12.470;2022-12-07T14:43:56;100722.00;;;1.58;100.00
19236;BME280;9752;54.270;12.470;2022-12-07T14:48:58;100729.59;;;1.66;100.00
19236;BME280;9752;54.270;12.470;2022-12-07T14:54:01;100722.81;;;1.67;100.00
19236;BME280;9752;54.270;12.470;2022-12-07T14:59:05;100736.84;;;1.62;100.00
19236;BME280;9752;54.270;12.470;2022-12-07T15:04:06;100720.59;;;1.61;100.00
19236;BME280;9752;54.270;12.470;2022-12-07T15:09:10;100730.50;;;1.04;100.00
19236;BME280;9752;54.270;12.470;2022-12-07T15:14:12;100740.59;;;0.94;100.00
19236;BME280;9752;54.270;12.470;2022-12-07T15:19:15;100740.31;;;1.08;100.00
19236;BME280;9752;54.270;12.470;2022-12-07T15:24:19;100762.50;;;1.09;100.00
19236;BME280;9752;54.270;12.470;2022-12-07T15:29:22;100785.66;;;0.85;100.00
19236;BME280;9752;54.270;12.470;2022-12-07T15:34:24;100785.94;;;0.53;100.00
19236;BME280;9752;54.270;12.470;2022-12-07T15:39:28;100781.16;;;0.73;100.00
19236;BME280;9752;54.270;12.470;2022-12-07T15:44:29;100787.31;;;0.93;100.00
19236;BME280;9752;54.270;12.470;2022-12-07T15:49:49;100793.00;;;1.08;100.00
19236;BME280;9752;54.270;12.470;2022-12-07T15:54:52;100800.09;;;1.10;100.00
19236;BME280;9752;54.270;12.470;2022-12-07T15:59:54;100799.19;;;1.19;100.00
19236;BME280;9752;54.270;12.470;2022-12-07T16:04:55;100801.59;;;1.26;100.00
19236;BME280;9752;54.270;12.470;2022-12-07T16:09:58;100808.94;;;1.31;100.00
19236;BME280;9752;54.270;12.470;2022-12-07T16:15:00;100816.13;;;1.27;100.00
19236;BME280;9752;54.270;12.470;2022-12-07T16:20:03;100817.81;;;1.00;100.00
19236;BME280;9752;54.270;12.470;2022-12-07T16:25:07;100823.53;;;1.15;100.00
19236;BME280;9752;54.270;12.470;2022-12-07T16:30:12;100826.53;;;0.93;100.00
19236;BME280;9752;54.270;12.470;2022-12-07T16:35:14;100815.28;;;0.91;100.00
19236;BME280;9752;54.270;12.470;2022-12-07T16:40:17;100821.72;;;0.96;100.00
19236;BME280;9752;54.270;12.470;2022-12-07T16:45:19;100829.97;;;0.85;100.00
19236;BME280;9752;54.270;12.470;2022-12-07T16:50:20;100825.78;;;0.94;100.00
19236;BME280;9752;54.270;12.470;2022-12-07T16:55:24;100819.16;;;1.05;100.00
19236;BME280;9752;54.270;12.470;2022-12-07T17:00:25;100821.88;;;1.07;100.00
19236;BME280;9752;54.270;12.470;2022-12-07T17:05:27;100837.03;;;1.05;100.00
19236;BME280;9752;54.270;12.470;2022-12-07T17:10:33;100806.84;;;0.84;100.00
19236;BME280;9752;54.270;12.470;2022-12-07T17:15:35;100814.78;;;0.87;100.00
19236;BME280;9752;54.270;12.470;2022-12-07T17:20:37;100818.56;;;0.82;100.00
19236;BME280;9752;54.270;12.470;2022-12-07T17:25:40;100819.31;;;0.81;100.00
19236;BME280;9752;54.270;12.470;2022-12-07T17:30:42;100823.97;;;0.76;100.00
19236;BME280;9752;54.270;12.470;2022-12-07T17:35:43;100830.09;;;0.69;100.00
19236;BME280;9752;54.270;12.470;2022-12-07T17:40:47;100826.50;;;0.67;100.00
19236;BME280;9752;54.270;12.470;2022-12-07T17:45:48;100826.38;;;0.74;100.00
19236;BME280;9752;54.270;12.470;2022-12-07T17:50:50;100833.13;;;0.83;100.00
19236;BME280;9752;54.270;12.470;2022-12-07T17:56:12;100838.22;;;0.83;100.00
19236;BME280;9752;54.270;12.470;2022-12-07T18:01:13;100843.59;;;0.68;100.00
19236;BME280;9752;54.270;12.470;2022-12-07T18:06:15;100832.03;;;0.46;100.00
19236;BME280;9752;54.270;12.470;2022-12-07T18:11:18;100829.59;;;0.38;100.00
19236;BME280;9752;54.270;12.470;2022-12-07T18:16:22;100834.31;;;0.18;100.00
19236;BME280;9752;54.270;12.470;2022-12-07T18:21:29;100837.31;;;0.23;100.00
19236;BME280;9752;54.270;12.470;2022-12-07T18:26:33;100837.19;;;0.21;100.00
19236;BME280;9752;54.270;12.470;2022-12-07T18:31:36;100845.91;;;0.32;100.00
19236;BME280;9752;54.270;12.470;2022-12-07T18:36:39;100847.16;;;0.44;100.00
19236;BME280;9752;54.270;12.470;2022-12-07T18:41:43;100847.00;;;0.43;100.00
19236;BME280;9752;54.270;12.470;2022-12-07T18:46:45;100850.00;;;0.38;100.00
19236;BME280;9752;54.270;12.470;2022-12-07T18:51:47;100845.06;;;0.40;100.00
19236;BME280;9752;54.270;12.470;2022-12-07T18:56:51;100839.47;;;0.27;100.00
19236;BME280;9752;54.270;12.470;2022-12-07T19:01:54;100843.19;;;0.30;100.00
19236;BME280;9752;54.270;12.470;2022-12-07T19:06:56;100841.09;;;0.26;100.00
19236;BME280;9752;54.270;12.470;2022-12-07T19:11:59;100852.19;;;0.18;100.00
19236;BME280;9752;54.270;12.470;2022-12-07T19:17:05;100855.19;;;0.23;100.00
19236;BME280;9752;54.270;12.470;2022-12-07T19:22:08;100847.19;;;0.11;100.00
19236;BME280;9752;54.270;12.470;2022-12-07T19:27:12;100848.25;;;0.13;100.00
19236;BME280;9752;54.270;12.470;2022-12-07T19:32:15;100862.03;;;0.06;100.00
19236;BME280;9752;54.270;12.470;2022-12-07T19:37:17;100867.16;;;0.15;100.00
19236;BME280;9752;54.270;12.470;2022-12-07T19:42:20;100863.75;;;0.23;100.00
19236;BME280;9752;54.270;12.470;2022-12-07T19:47:22;100863.66;;;0.39;100.00
19236;BME280;9752;54.270;12.470;2022-12-07T19:52:23;100857.22;;;0.43;100.00
19236;BME280;9752;54.270;12.470;2022-12-07T19:57:27;100844.41;;;0.25;100.00
19236;BME280;9752;54.270;12.470;2022-12-07T20:02:29;100853.66;;;0.16;100.00
19236;BME280;9752;54.270;12.470;2022-12-07T20:07:30;100853.94;;;0.10;100.00
19236;BME280;9752;54.270;12.470;2022-12-07T20:12:37;100859.00;;;0.02;100.00
19236;BME280;9752;54.270;12.470;2022-12-07T20:17:57;100854.22;;;0.05;100.00
19236;BME280;9752;54.270;12.470;2022-12-07T20:22:59;100858.09;;;0.01;100.00
19236;BME280;9752;54.270;12.470;2022-12-07T20:28:02;100856.59;;;0.03;100.00
19236;BME280;9752;54.270;12.470;2022-12-07T20:33:04;100858.25;;;0.03;100.00
19236;BME280;9752;54.270;12.470;2022-12-07T20:38:06;100850.91;;;0.06;100.00
19236;BME280;9752;54.270;12.470;2022-12-07T20:43:09;100861.75;;;0.12;100.00
19236;BME280;9752;54.270;12.470;2022-12-07T20:48:10;100852.00;;;0.16;100.00
19236;BME280;9752;54.270;12.470;2022-12-07T20:53:12;100849.28;;;0.06;100.00
19236;BME280;9752;54.270;12.470;2022-12-07T20:58:16;100848.59;;;-0.09;100.00
19236;BME280;9752;54.270;12.470;2022-12-07T21:03:17;100860.72;;;-0.15;100.00
19236;BME280;9752;54.270;12.470;2022-12-07T21:08:19;100853.75;;;0.00;100.00
19236;BME280;9752;54.270;12.470;2022-12-07T21:13:23;100853.81;;;-0.16;100.00
19236;BME280;9752;54.270;12.470;2022-12-07T21:18:24;100851.69;;;-0.20;100.00
19236;BME280;9752;54.270;12.470;2022-12-07T21:23:26;100857.97;;;-0.25;100.00
19236;BME280;9752;54.270;12.470;2022-12-07T21:28:29;100859.19;;;-0.22;100.00
19236;BME280;9752;54.270;12.470;2022-12-07T21:33:31;100860.94;;;-0.29;100.00
19236;BME280;9752;54.270;12.470;2022-12-07T21:38:33;100860.50;;;-0.25;100.00
19236;BME280;9752;54.270;12.470;2022-12-07T21:43:36;100857.69;;;-0.44;100.00
19236;BME280;9752;54.270;12.470;2022-12-07T21:48:38;100863.47;;;-0.54;100.00
19236;BME280;9752;54.270;12.470;2022-12-07T21:53:41;100853.28;;;-0.54;100.00
19236;BME280;9752;54.270;12.470;2022-12-07T21:58:44;100850.56;;;-0.55;100.00
19236;BME280;9752;54.270;12.470;2022-12-07T22:03:46;100853.19;;;-0.63;100.00
19236;BME280;9752;54.270;12.470;2022-12-07T22:08:50;100854.09;;;-0.87;100.00
19236;BME280;9752;54.270;12.470;2022-12-07T22:13:54;100858.13;;;-0.89;100.00
19236;BME280;9752;54.270;12.470;2022-12-07T22:19:13;100850.06;;;-1.01;100.00
19236;BME280;9752;54.270;12.470;2022-12-07T22:24:14;100853.44;;;-1.09;100.00
19236;BME280;9752;54.270;12.470;2022-12-07T22:29:18;100852.13;;;-1.05;100.00
19236;BME280;9752;54.270;12.470;2022-12-07T22:34:20;100849.72;;;-1.20;100.00
19236;BME280;9752;54.270;12.470;2022-12-07T22:39:22;100856.19;;;-1.46;100.00
19236;BME280;9752;54.270;12.470;2022-12-07T22:44:25;100847.84;;;-1.84;100.00
19236;BME280;9752;54.270;12.470;2022-12-07T22:49:27;100854.34;;;-1.79;100.00
19236;BME280;9752;54.270;12.470;2022-12-07T22:54:28;100850.03;;;-1.64;100.00
19236;BME280;9752;54.270;12.470;2022-12-07T22:59:31;100840.09;;;-1.70;100.00
19236;BME280;9752;54.270;12.470;2022-12-07T23:04:33;100848.31;;;-1.96;100.00
19236;BME280;9752;54.270;12.470;2022-12-07T23:09:35;100853.38;;;-2.19;100.00
19236;BME280;9752;54.270;12.470;2022-12-07T23:14:38;100842.28;;;-2.35;100.00
19236;BME280;9752;54.270;12.470;2022-12-07T23:19:40;100838.97;;;-2.57;100.00
19236;BME280;9752;54.270;12.470;2022-12-07T23:24:41;100838.44;;;-2.62;100.00
19236;BME280;9752;54.270;12.470;2022-12-07T23:29:44;100843.69;;;-2.60;100.00
19236;BME280;9752;54.270;12.470;2022-12-07T23:34:46;100839.63;;;-2.51;100.00
19236;BME280;9752;54.270;12.470;2022-12-07T23:39:47;100842.63;;;-2.39;100.00
19236;BME280;9752;54.270;12.470;2022-12-07T23:44:51;100844.38;;;-2.24;100.00
19236;BME280;9752;54.270;12.470;2022-12-07T23:49:52;100844.88;;;-2.19;100.00
19236;BME280;9752;54.270;12.470;2022-12-07T23:54:54;100847.81;;;-2.23;100.00
19236;BME280;9752;54.270;12.470;2022-12-07T23:59:57;100850.34;;;-2.23;100.00
